createdAt,value
2018-03-28T00:01:21.594Z,89.94
2018-03-28T00:03:49.842Z,90.36
2018-03-28T00:06:18.107Z,90.38
2018-03-28T00:08:46.364Z,90.61
2018-03-28T00:11:14.624Z,91.10
2018-03-28T00:13:42.879Z,91.67
2018-03-28T00:16:11.133Z,91.62
2018-03-28T00:18:39.386Z,91.50
2018-03-28T00:21:07.634Z,91.95
2018-03-28T00:23:36.654Z,92.21
2018-03-28T00:26:04.905Z,92.11
2018-03-28T00:28:33.162Z,92.11
2018-03-28T00:31:01.404Z,92.26
2018-03-28T00:33:29.659Z,92.38
2018-03-28T00:35:57.925Z,92.56
2018-03-28T00:38:26.191Z,92.78
2018-03-28T00:40:55.210Z,92.79
2018-03-28T00:43:23.453Z,92.85
2018-03-28T00:45:51.711Z,92.88
2018-03-28T00:48:19.970Z,93.05
2018-03-28T00:50:48.214Z,92.57
2018-03-28T00:53:16.462Z,92.77
2018-03-28T00:55:44.738Z,92.72
2018-03-28T00:58:12.977Z,92.87
2018-03-28T01:00:41.225Z,93.01
2018-03-28T01:03:10.233Z,92.70
2018-03-28T01:05:38.485Z,92.79
2018-03-28T01:08:06.747Z,93.07
2018-03-28T01:10:35.006Z,92.99
2018-03-28T01:13:04.012Z,93.12
2018-03-28T01:15:32.258Z,93.01
2018-03-28T01:18:01.271Z,92.92
2018-03-28T01:20:29.530Z,93.17
2018-03-28T01:22:57.775Z,93.22
2018-03-28T01:25:26.017Z,93.73
2018-03-28T01:27:54.277Z,93.66
2018-03-28T01:30:22.522Z,93.80
2018-03-28T01:32:50.770Z,93.82
2018-03-28T01:35:19.015Z,93.81
2018-03-28T01:37:47.275Z,93.43
2018-03-28T01:40:15.517Z,93.85
2018-03-28T01:42:43.765Z,93.56
2018-03-28T01:45:12.009Z,94.05
2018-03-28T01:47:40.250Z,94.09
2018-03-28T01:50:09.325Z,94.25
2018-03-28T01:52:37.538Z,94.32
2018-03-28T01:55:06.549Z,94.41
2018-03-28T01:57:34.806Z,94.39
2018-03-28T02:00:03.813Z,94.36
2018-03-28T02:02:32.086Z,94.78
2018-03-28T02:05:00.340Z,94.93
2018-03-28T02:07:28.585Z,95.07
2018-03-28T02:09:56.837Z,95.01
2018-03-28T02:12:25.094Z,94.90
2018-03-28T02:14:53.347Z,94.67
2018-03-28T02:17:22.353Z,94.37
2018-03-28T02:19:50.601Z,93.95
2018-03-28T02:22:18.842Z,93.63
2018-03-28T02:24:47.090Z,93.63
2018-03-28T02:27:15.339Z,93.77
2018-03-28T02:29:45.168Z,93.67
2018-03-28T02:32:13.418Z,93.71
2018-03-28T02:34:42.429Z,93.44
2018-03-28T02:37:10.687Z,93.34
2018-03-28T02:39:38.937Z,93.56
2018-03-28T02:42:07.178Z,93.51
2018-03-28T02:44:35.422Z,93.32
2018-03-28T02:47:04.434Z,93.71
2018-03-28T02:49:32.692Z,93.90
2018-03-28T02:52:01.689Z,93.80
2018-03-28T02:54:29.946Z,93.88
2018-03-28T02:56:58.214Z,93.90
2018-03-28T02:59:27.394Z,94.39
2018-03-28T03:01:55.646Z,94.43
2018-03-28T03:04:23.893Z,94.40
2018-03-28T03:06:52.148Z,94.17
2018-03-28T03:09:21.019Z,94.30
2018-03-28T03:11:49.282Z,94.27
2018-03-28T03:14:17.532Z,94.32
2018-03-28T03:16:45.777Z,94.44
2018-03-28T03:19:14.783Z,94.31
2018-03-28T03:21:43.048Z,94.31
2018-03-28T03:24:12.065Z,94.20
2018-03-28T03:26:40.375Z,94.32
2018-03-28T03:29:08.575Z,94.20
2018-03-28T03:31:37.595Z,94.29
2018-03-28T03:34:05.843Z,94.14
2018-03-28T03:36:34.097Z,94.35
2018-03-28T03:39:02.348Z,94.30
2018-03-28T03:41:30.606Z,94.16
2018-03-28T03:43:58.849Z,94.04
2018-03-28T03:46:27.868Z,94.22
2018-03-28T03:48:56.118Z,94.41
2018-03-28T03:51:25.138Z,94.28
2018-03-28T03:53:53.382Z,94.23
2018-03-28T03:56:21.670Z,94.08
2018-03-28T03:58:49.964Z,94.24
2018-03-28T04:01:18.173Z,94.63
2018-03-28T04:03:46.443Z,95.02
2018-03-28T04:06:14.690Z,95.11
2018-03-28T04:08:42.947Z,95.05
2018-03-28T04:11:11.958Z,95.13
2018-03-28T04:13:40.212Z,95.00
2018-03-28T04:16:08.467Z,95.08
2018-03-28T04:18:36.723Z,95.12
2018-03-28T04:21:04.970Z,95.27
2018-03-28T04:23:34.163Z,95.37
2018-03-28T04:26:02.426Z,95.42
2018-03-28T04:28:31.451Z,95.45
2018-03-28T04:30:59.695Z,95.57
2018-03-28T04:33:27.949Z,95.64
2018-03-28T04:35:57.094Z,95.64
2018-03-28T04:38:25.352Z,95.72
2018-03-28T04:40:53.589Z,95.70
2018-03-28T04:43:21.833Z,95.74
2018-03-28T04:45:50.078Z,95.59
2018-03-28T04:48:18.325Z,95.56
2018-03-28T04:50:46.579Z,95.54
2018-03-28T04:53:14.834Z,95.52
2018-03-28T04:55:43.147Z,95.61
2018-03-28T04:58:11.342Z,95.62
2018-03-28T05:00:39.609Z,95.60
2018-03-28T05:03:07.868Z,95.61
2018-03-28T05:05:36.107Z,95.50
2018-03-28T05:08:04.361Z,95.61
2018-03-28T05:10:32.606Z,95.58
2018-03-28T05:13:00.858Z,95.49
2018-03-28T05:15:29.096Z,95.41
2018-03-28T05:17:57.353Z,95.41
2018-03-28T05:20:25.603Z,95.22
2018-03-28T05:22:54.622Z,95.13
2018-03-28T05:25:22.864Z,95.14
2018-03-28T05:27:51.185Z,95.11
2018-03-28T05:30:19.421Z,95.09
2018-03-28T05:32:48.434Z,94.90
2018-03-28T05:35:16.681Z,94.89
2018-03-28T05:37:44.933Z,95.01
2018-03-28T05:40:13.178Z,94.83
2018-03-28T05:42:41.422Z,94.89
2018-03-28T05:45:10.434Z,95.02
2018-03-28T05:47:38.672Z,94.96
2018-03-28T05:50:06.914Z,95.02
2018-03-28T05:52:35.506Z,95.14
2018-03-28T05:55:03.758Z,95.21
2018-03-28T05:57:32.001Z,95.18
2018-03-28T06:00:00.245Z,95.19
2018-03-28T06:02:28.498Z,95.09
2018-03-28T06:04:56.737Z,95.00
2018-03-28T06:07:24.995Z,94.90
2018-03-28T06:09:53.241Z,95.06
2018-03-28T06:12:21.490Z,95.22
2018-03-28T06:14:49.736Z,95.30
2018-03-28T06:17:17.992Z,95.32
2018-03-28T06:19:47.006Z,95.38
2018-03-28T06:22:15.254Z,95.19
2018-03-28T06:24:44.270Z,95.02
2018-03-28T06:27:12.516Z,94.77
2018-03-28T06:29:40.773Z,94.91
2018-03-28T06:32:09.017Z,94.87
2018-03-28T06:34:37.262Z,94.71
2018-03-28T06:37:06.279Z,94.46
2018-03-28T06:39:34.521Z,94.33
2018-03-28T06:42:03.530Z,94.26
2018-03-28T06:44:31.785Z,94.02
2018-03-28T06:47:00.025Z,93.95
2018-03-28T06:49:28.273Z,94.02
2018-03-28T06:51:56.514Z,93.93
2018-03-28T06:54:25.529Z,93.88
2018-03-28T06:56:53.773Z,93.85
2018-03-28T06:59:22.030Z,93.88
2018-03-28T07:01:50.265Z,94.02
2018-03-28T07:04:18.508Z,94.21
2018-03-28T07:06:47.524Z,94.42
2018-03-28T07:09:15.761Z,94.20
2018-03-28T07:11:44.010Z,94.41
2018-03-28T07:14:12.250Z,94.15
2018-03-28T07:16:40.506Z,93.89
2018-03-28T07:19:09.506Z,93.51
2018-03-28T07:21:38.514Z,93.31
2018-03-28T07:24:06.758Z,93.04
2018-03-28T07:26:35.006Z,92.67
2018-03-28T07:29:03.241Z,91.40
2018-03-28T07:31:31.492Z,90.92
2018-03-28T07:33:59.725Z,91.13
2018-03-28T07:36:27.973Z,91.23
2018-03-28T07:38:56.209Z,91.46
2018-03-28T07:41:24.460Z,90.91
2018-03-28T07:43:52.920Z,91.22
2018-03-28T07:46:21.153Z,91.85
2018-03-28T07:48:50.165Z,92.07
2018-03-28T07:51:18.412Z,92.33
2018-03-28T07:53:47.417Z,91.69
2018-03-28T07:56:16.421Z,91.29
2018-03-28T07:58:44.670Z,90.86
2018-03-28T08:01:13.683Z,90.38
2018-03-28T08:03:42.693Z,90.24
2018-03-28T08:06:10.938Z,89.34
2018-03-28T08:08:39.963Z,89.63
2018-03-28T08:11:08.210Z,88.35
2018-03-28T08:13:37.240Z,88.33
2018-03-28T08:16:05.650Z,88.08
2018-03-28T08:18:34.666Z,87.43
2018-03-28T08:21:03.682Z,86.99
2018-03-28T08:23:32.718Z,86.13
2018-03-28T08:26:00.958Z,85.69
2018-03-28T08:28:29.206Z,85.84
2018-03-28T08:30:57.455Z,84.15
2018-03-28T08:33:25.705Z,83.37
2018-03-28T08:35:53.951Z,83.98
2018-03-28T08:38:22.197Z,83.92
2018-03-28T08:40:50.454Z,83.22
2018-03-28T08:43:18.694Z,84.23
2018-03-28T08:45:46.950Z,82.55
2018-03-28T08:48:15.971Z,82.07
2018-03-28T08:50:44.218Z,80.94
2018-03-28T08:53:13.240Z,81.07
2018-03-28T08:55:41.486Z,79.87
2018-03-28T08:58:10.498Z,80.08
2018-03-28T09:00:38.746Z,80.05
2018-03-28T09:03:07.767Z,78.56
2018-03-28T09:05:36.016Z,78.94
2018-03-28T09:08:05.022Z,78.76
2018-03-28T09:10:33.275Z,77.90
2018-03-28T09:13:02.291Z,78.01
2018-03-28T09:15:30.547Z,77.47
2018-03-28T09:17:59.567Z,78.09
2018-03-28T09:20:27.810Z,75.79
2018-03-28T09:22:56.831Z,76.90
2018-03-28T09:25:25.072Z,78.41
2018-03-28T09:27:53.323Z,77.49
2018-03-28T09:30:21.568Z,76.87
2018-03-28T09:32:49.838Z,76.96
2018-03-28T09:35:18.083Z,77.37
2018-03-28T09:37:46.338Z,77.75
2018-03-28T09:40:14.568Z,77.43
2018-03-28T09:42:42.814Z,76.90
2018-03-28T09:45:11.825Z,76.72
2018-03-28T09:47:40.836Z,77.53
2018-03-28T09:50:09.077Z,76.61
2018-03-28T09:52:38.094Z,76.03
2018-03-28T09:55:06.345Z,75.25
2018-03-28T09:57:35.353Z,75.67
2018-03-28T10:00:03.590Z,75.09
2018-03-28T10:02:31.843Z,74.67
2018-03-28T10:05:00.082Z,75.11
2018-03-28T10:07:28.317Z,73.81
2018-03-28T10:09:56.558Z,73.54
2018-03-28T10:12:24.798Z,73.08
2018-03-28T10:14:53.814Z,71.54
2018-03-28T10:17:22.057Z,71.37
2018-03-28T10:19:51.074Z,70.53
2018-03-28T10:22:19.308Z,68.84
2018-03-28T10:24:47.560Z,68.44
2018-03-28T10:27:15.801Z,68.80
2018-03-28T10:29:44.063Z,68.66
2018-03-28T10:32:13.059Z,66.46
2018-03-28T10:34:42.095Z,65.28
2018-03-28T10:37:10.315Z,65.27
2018-03-28T10:39:39.333Z,65.85
2018-03-28T10:42:07.569Z,65.53
2018-03-28T10:44:36.594Z,64.74
2018-03-28T10:47:04.837Z,64.42
2018-03-28T10:49:33.080Z,64.90
2018-03-28T10:52:01.327Z,65.13
2018-03-28T10:54:29.581Z,65.24
2018-03-28T10:56:58.581Z,66.54
2018-03-28T10:59:27.590Z,64.83
2018-03-28T11:01:55.849Z,65.32
2018-03-28T11:04:24.849Z,64.27
2018-03-28T11:06:53.106Z,65.45
2018-03-28T11:09:22.107Z,66.38
2018-03-28T11:11:51.113Z,66.44
2018-03-28T11:14:19.345Z,66.19
2018-03-28T11:16:47.605Z,66.60
2018-03-28T11:19:15.828Z,66.17
2018-03-28T11:21:44.078Z,66.71
2018-03-28T11:24:13.081Z,67.10
2018-03-28T11:26:42.097Z,66.80
2018-03-28T11:29:10.330Z,66.82
2018-03-28T11:31:38.574Z,66.35
2018-03-28T11:34:06.814Z,67.29
2018-03-28T11:36:35.821Z,67.33
2018-03-28T11:39:04.062Z,67.16
2018-03-28T11:41:32.305Z,67.12
2018-03-28T11:44:00.546Z,67.10
2018-03-28T11:46:28.792Z,67.13
2018-03-28T11:48:57.797Z,66.75
2018-03-28T11:51:26.806Z,67.35
2018-03-28T11:53:55.045Z,65.98
2018-03-28T11:56:24.069Z,65.51
2018-03-28T11:58:52.306Z,65.31
2018-03-28T12:01:20.551Z,65.77
2018-03-28T12:03:48.800Z,65.74
2018-03-28T12:06:17.053Z,65.04
2018-03-28T12:08:46.057Z,64.96
2018-03-28T12:11:14.311Z,64.97
2018-03-28T12:13:43.321Z,65.13
2018-03-28T12:16:11.557Z,65.39
2018-03-28T12:18:39.835Z,65.25
2018-03-28T12:21:08.049Z,65.16
2018-03-28T12:23:36.306Z,65.35
2018-03-28T12:26:05.321Z,65.35
2018-03-28T12:28:33.574Z,65.49
2018-03-28T12:31:01.820Z,64.81
2018-03-28T12:33:30.061Z,63.59
2018-03-28T12:35:58.302Z,64.17
2018-03-28T12:38:27.313Z,63.60
2018-03-28T12:40:55.553Z,61.86
2018-03-28T12:43:23.806Z,60.79
2018-03-28T12:45:52.054Z,59.44
2018-03-28T12:48:20.313Z,58.70
2018-03-28T12:50:49.321Z,58.13
2018-03-28T12:53:17.583Z,57.53
2018-03-28T12:55:46.581Z,55.34
2018-03-28T12:58:14.838Z,54.85
2018-03-28T13:00:43.849Z,51.30
2018-03-28T13:03:12.118Z,51.54
2018-03-28T13:05:41.123Z,51.66
2018-03-28T13:08:09.411Z,52.36
2018-03-28T13:10:38.390Z,53.08
2018-03-28T13:13:06.634Z,51.19
2018-03-28T13:15:34.892Z,53.71
2018-03-28T13:18:03.130Z,52.30
2018-03-28T13:20:31.394Z,54.53
2018-03-28T13:22:59.636Z,52.34
2018-03-28T13:25:27.889Z,53.01
2018-03-28T13:27:56.129Z,52.24
2018-03-28T13:30:24.386Z,54.31
2018-03-28T13:32:52.630Z,55.66
2018-03-28T13:35:20.943Z,55.29
2018-03-28T13:37:49.192Z,57.22
2018-03-28T13:40:18.215Z,55.95
2018-03-28T13:42:46.460Z,56.12
2018-03-28T13:45:14.703Z,57.92
2018-03-28T13:47:42.962Z,57.39
2018-03-28T13:50:11.204Z,57.45
2018-03-28T13:52:39.453Z,58.67
2018-03-28T13:55:07.702Z,59.23
2018-03-28T13:57:35.966Z,57.92
2018-03-28T14:00:04.219Z,58.64
2018-03-28T14:02:32.470Z,57.60
2018-03-28T14:05:01.487Z,57.77
2018-03-28T14:07:29.736Z,57.19
2018-03-28T14:09:58.749Z,57.43
2018-03-28T14:12:27.007Z,57.20
2018-03-28T14:14:56.017Z,57.11
2018-03-28T14:17:24.265Z,57.44
2018-03-28T14:19:53.282Z,57.43
2018-03-28T14:22:21.541Z,57.73
2018-03-28T14:24:50.556Z,58.47
2018-03-28T14:27:18.831Z,59.81
2018-03-28T14:29:47.076Z,59.70
2018-03-28T14:32:16.101Z,60.58
2018-03-28T14:34:44.351Z,61.18
2018-03-28T14:37:13.372Z,62.56
2018-03-28T14:39:41.617Z,65.17
2018-03-28T14:42:10.641Z,66.18
2018-03-28T14:44:38.881Z,67.85
2018-03-28T14:47:07.898Z,70.85
2018-03-28T14:49:36.148Z,71.43
2018-03-28T14:52:04.393Z,72.60
2018-03-28T14:54:32.629Z,74.25
2018-03-28T14:57:00.866Z,74.67
2018-03-28T14:59:29.115Z,76.10
2018-03-28T15:01:57.350Z,76.94
2018-03-28T15:04:25.642Z,78.44
2018-03-28T15:06:53.837Z,80.52
2018-03-28T15:09:22.089Z,81.41
2018-03-28T15:11:50.328Z,81.86
2018-03-28T15:14:18.570Z,82.58
2018-03-28T15:16:46.819Z,84.16
2018-03-28T15:19:15.058Z,84.83
2018-03-28T15:21:44.058Z,86.11
2018-03-28T15:24:13.090Z,87.62
2018-03-28T15:26:41.317Z,87.99
2018-03-28T15:29:10.329Z,89.03
2018-03-28T15:31:39.331Z,89.60
2018-03-28T15:34:07.574Z,89.18
2018-03-28T15:36:35.822Z,89.02
2018-03-28T15:39:04.070Z,88.63
2018-03-28T15:41:32.321Z,89.09
2018-03-28T15:44:01.329Z,89.04
2018-03-28T15:46:29.570Z,89.66
2018-03-28T15:48:58.589Z,89.91
2018-03-28T15:51:28.075Z,90.02
2018-03-28T15:53:57.082Z,90.38
2018-03-28T15:56:26.089Z,90.60
2018-03-28T15:58:54.337Z,90.88
2018-03-28T16:01:23.359Z,90.80
2018-03-28T16:03:51.601Z,91.00
2018-03-28T16:06:20.613Z,91.17
2018-03-28T16:08:48.919Z,91.21
2018-03-28T16:11:17.881Z,91.18
2018-03-28T16:13:46.124Z,92.00
2018-03-28T16:16:14.370Z,91.70
2018-03-28T16:18:42.614Z,91.99
2018-03-28T16:21:10.866Z,91.92
2018-03-28T16:23:39.883Z,92.05
2018-03-28T16:26:08.123Z,92.04
2018-03-28T16:28:36.425Z,92.04
2018-03-28T16:31:04.677Z,92.65
2018-03-28T16:33:33.691Z,92.92
2018-03-28T16:36:01.934Z,92.90
2018-03-28T16:38:30.173Z,93.17
2018-03-28T16:40:58.442Z,93.26
2018-03-28T16:43:26.763Z,93.28
2018-03-28T16:45:54.945Z,93.54
2018-03-28T16:48:23.202Z,93.44
2018-03-28T16:50:51.443Z,93.70
2018-03-28T16:53:19.680Z,93.65
2018-03-28T16:55:48.696Z,94.00
2018-03-28T16:58:16.941Z,93.73
2018-03-28T17:00:45.953Z,93.98
2018-03-28T17:03:14.205Z,93.94
2018-03-28T17:05:42.451Z,94.02
2018-03-28T17:08:10.698Z,94.21
2018-03-28T17:10:38.942Z,94.04
2018-03-28T17:13:07.954Z,93.99
2018-03-28T17:15:36.198Z,93.94
2018-03-28T17:18:04.449Z,94.12
2018-03-28T17:20:32.698Z,94.01
2018-03-28T17:23:00.957Z,94.29
2018-03-28T17:25:29.203Z,94.38
2018-03-28T17:27:57.453Z,94.09
2018-03-28T17:30:25.698Z,94.02
2018-03-28T17:32:53.938Z,94.31
2018-03-28T17:35:22.959Z,94.24
2018-03-28T17:37:51.200Z,94.22
2018-03-28T17:40:19.449Z,94.00
2018-03-28T17:42:47.694Z,94.08
2018-03-28T17:45:15.966Z,94.16
2018-03-28T17:47:44.946Z,94.30
2018-03-28T17:50:13.198Z,94.27
2018-03-28T17:52:42.207Z,93.90
2018-03-28T17:55:11.229Z,93.76
2018-03-28T17:57:39.469Z,93.73
2018-03-28T18:00:08.485Z,94.21
2018-03-28T18:02:36.728Z,93.68
2018-03-28T18:05:05.753Z,93.51
2018-03-28T18:07:33.991Z,93.93
2018-03-28T18:10:02.234Z,92.66
2018-03-28T18:12:30.477Z,93.46
2018-03-28T18:14:58.722Z,93.82
2018-03-28T18:17:26.961Z,93.95
2018-03-28T18:19:55.215Z,93.71
2018-03-28T18:22:23.449Z,93.77
2018-03-28T18:24:52.466Z,93.85
2018-03-28T18:27:20.717Z,94.03
2018-03-28T18:29:49.725Z,94.41
2018-03-28T18:32:17.979Z,94.49
2018-03-28T18:34:46.214Z,94.17
2018-03-28T18:37:14.470Z,94.36
2018-03-28T18:39:42.705Z,93.80
2018-03-28T18:42:10.949Z,93.76
2018-03-28T18:44:39.194Z,93.49
2018-03-28T18:47:07.433Z,93.26
2018-03-28T18:49:36.508Z,93.47
2018-03-28T18:52:04.689Z,93.47
2018-03-28T18:54:32.932Z,93.06
2018-03-28T18:57:01.174Z,93.60
2018-03-28T18:59:30.187Z,93.05
2018-03-28T19:01:58.420Z,92.31
2018-03-28T19:04:26.660Z,92.99
2018-03-28T19:06:54.896Z,93.33
2018-03-28T19:09:23.137Z,92.90
2018-03-28T19:11:51.389Z,92.74
2018-03-28T19:14:19.629Z,92.71
2018-03-28T19:16:47.875Z,92.65
2018-03-28T19:19:16.886Z,92.60
2018-03-28T19:21:45.126Z,92.06
2018-03-28T19:24:13.370Z,91.98
2018-03-28T19:26:41.605Z,92.33
2018-03-28T19:29:10.612Z,91.89
2018-03-28T19:31:38.846Z,91.89
2018-03-28T19:34:07.101Z,91.99
2018-03-28T19:36:35.342Z,91.78
2018-03-28T19:39:03.581Z,92.10
2018-03-28T19:41:31.827Z,92.56
2018-03-28T19:44:00.067Z,92.97
2018-03-28T19:46:28.311Z,94.05
2018-03-28T19:48:57.322Z,93.88
2018-03-28T19:51:25.565Z,93.82
2018-03-28T19:53:53.806Z,93.80
2018-03-28T19:56:22.041Z,93.87
2018-03-28T19:58:51.069Z,93.92
2018-03-28T20:01:19.317Z,93.72
2018-03-28T20:03:48.321Z,93.43
2018-03-28T20:06:16.634Z,93.50
2018-03-28T20:08:45.178Z,93.45
2018-03-28T20:13:51.243Z,92.59
2018-03-28T20:16:19.558Z,92.96
2018-03-28T20:18:47.927Z,92.94
2018-03-28T20:21:16.297Z,93.15
2018-03-28T20:23:44.542Z,93.19
2018-03-28T20:26:13.554Z,92.47
2018-03-28T20:28:41.795Z,92.83
2018-03-28T20:31:10.041Z,92.76
2018-03-28T20:33:38.278Z,92.64
2018-03-28T20:36:07.241Z,91.47
2018-03-28T20:38:36.242Z,91.56
2018-03-28T20:41:06.874Z,91.53
2018-03-28T20:43:35.888Z,92.18
2018-03-28T20:46:04.153Z,91.81
2018-03-28T20:48:33.168Z,91.35
2018-03-28T20:51:01.415Z,91.58
2018-03-28T20:53:29.659Z,91.00
2018-03-28T20:55:57.909Z,91.29
2018-03-28T20:58:26.144Z,91.20
2018-03-28T21:00:55.170Z,91.43
2018-03-28T21:03:23.406Z,91.58
2018-03-28T21:05:52.434Z,91.69
2018-03-28T21:08:20.669Z,90.92
2018-03-28T21:10:48.917Z,90.11
2018-03-28T21:13:17.167Z,90.18
2018-03-28T21:15:45.422Z,90.23
2018-03-28T21:18:13.658Z,89.34
2018-03-28T21:20:41.904Z,87.96
2018-03-28T21:23:10.142Z,87.92
2018-03-28T21:25:38.397Z,87.35
2018-03-28T21:28:07.411Z,87.38
2018-03-28T21:30:35.658Z,87.71
2018-03-28T21:33:03.918Z,86.70
2018-03-28T21:35:32.166Z,86.92
2018-03-28T21:38:00.418Z,86.23
2018-03-28T21:40:28.663Z,84.76
2018-03-28T21:42:56.941Z,85.45
2018-03-28T21:45:25.177Z,85.44
2018-03-28T21:47:53.434Z,85.90
2018-03-28T21:50:21.669Z,84.56
2018-03-28T21:52:50.697Z,84.68
2018-03-28T21:55:18.934Z,84.44
2018-03-28T21:57:47.182Z,83.94
2018-03-28T22:00:15.430Z,84.41
2018-03-28T22:02:43.669Z,82.72
2018-03-28T22:05:12.684Z,82.94
2018-03-28T22:07:40.930Z,83.45
2018-03-28T22:10:09.933Z,83.34
2018-03-28T22:12:38.950Z,84.03
2018-03-28T22:15:07.234Z,83.01
2018-03-28T22:17:35.488Z,83.14
2018-03-28T22:20:04.490Z,81.74
2018-03-28T22:22:32.742Z,81.40
2018-03-28T22:25:01.763Z,81.51
2018-03-28T22:27:30.766Z,81.75
2018-03-28T22:29:59.012Z,81.74
2018-03-28T22:32:28.022Z,81.76
2018-03-28T22:34:56.258Z,82.32
2018-03-28T22:37:24.514Z,80.14
2018-03-28T22:39:52.748Z,79.17
2018-03-28T22:42:20.994Z,77.59
2018-03-28T22:44:50.007Z,78.17
2018-03-28T22:47:18.259Z,77.58
2018-03-28T22:49:46.503Z,75.97
2018-03-28T22:52:14.747Z,75.03
2018-03-28T22:54:42.987Z,75.89
2018-03-28T22:57:12.002Z,74.69
2018-03-28T22:59:40.238Z,74.21
2018-03-28T23:02:09.250Z,74.00
2018-03-28T23:04:38.256Z,73.38
2018-03-28T23:07:07.274Z,74.16
2018-03-28T23:09:35.518Z,74.57
2018-03-28T23:12:04.539Z,74.02
2018-03-28T23:14:32.776Z,73.62
2018-03-28T23:17:01.018Z,73.50
2018-03-28T23:19:29.257Z,73.29
2018-03-28T23:21:57.518Z,74.23
2018-03-28T23:24:26.521Z,72.92
2018-03-28T23:26:54.753Z,72.69
2018-03-28T23:29:23.010Z,73.40
2018-03-28T23:31:51.249Z,74.93
2018-03-28T23:34:19.499Z,73.93
2018-03-28T23:36:48.506Z,73.18
2018-03-28T23:39:17.519Z,72.60
2018-03-28T23:41:45.758Z,71.22
2018-03-28T23:44:14.770Z,71.09
2018-03-28T23:46:43.015Z,71.60
2018-03-28T23:49:11.270Z,71.16
2018-03-28T23:51:39.514Z,71.22
2018-03-28T23:54:07.758Z,71.21
2018-03-28T23:56:36.765Z,71.25
2018-03-28T23:59:05.771Z,71.19
